sensor_id;sensor_type;location;lat;lon;timestamp;P1;durP1;ratioP1;P2;durP2;ratioP2
61702;SDS011;47622;47.726;3.298;2022-07-29T00:00:27;4.10;;;2.33;;
61702;SDS011;47622;47.726;3.298;2022-07-29T00:03:07;3.28;;;2.60;;
61702;SDS011;47622;47.726;3.298;2022-07-29T00:05:35;4.03;;;2.63;;
61702;SDS011;47622;47.726;3.298;2022-07-29T00:08:01;6.05;;;2.55;;
61702;SDS011;47622;47.726;3.298;2022-07-29T00:10:27;8.77;;;2.60;;
61702;SDS011;47622;47.726;3.298;2022-07-29T00:12:52;4.40;;;2.90;;
61702;SDS011;47622;47.726;3.298;2022-07-29T00:15:18;3.88;;;2.28;;
61702;SDS011;47622;47.726;3.298;2022-07-29T00:17:47;4.80;;;2.38;;
61702;SDS011;47622;47.726;3.298;2022-07-29T00:20:16;2.72;;;2.50;;
61702;SDS011;47622;47.726;3.298;2022-07-29T00:22:50;4.05;;;2.85;;
61702;SDS011;47622;47.726;3.298;2022-07-29T00:25:20;3.83;;;2.55;;
61702;SDS011;47622;47.726;3.298;2022-07-29T00:27:48;8.00;;;2.92;;
61702;SDS011;47622;47.726;3.298;2022-07-29T00:30:14;3.13;;;2.60;;
61702;SDS011;47622;47.726;3.298;2022-07-29T00:32:43;5.45;;;2.78;;
61702;SDS011;47622;47.726;3.298;2022-07-29T00:35:08;3.20;;;2.53;;
61702;SDS011;47622;47.726;3.298;2022-07-29T00:37:53;4.05;;;2.80;;
61702;SDS011;47622;47.726;3.298;2022-07-29T00:40:24;3.55;;;2.72;;
61702;SDS011;47622;47.726;3.298;2022-07-29T00:42:51;6.72;;;3.13;;
61702;SDS011;47622;47.726;3.298;2022-07-29T00:45:27;4.82;;;2.67;;
61702;SDS011;47622;47.726;3.298;2022-07-29T00:47:56;4.10;;;3.00;;
61702;SDS011;47622;47.726;3.298;2022-07-29T00:50:22;5.85;;;3.10;;
61702;SDS011;47622;47.726;3.298;2022-07-29T00:52:48;5.95;;;3.10;;
61702;SDS011;47622;47.726;3.298;2022-07-29T00:55:17;4.82;;;2.83;;
61702;SDS011;47622;47.726;3.298;2022-07-29T00:57:45;4.47;;;2.65;;
61702;SDS011;47622;47.726;3.298;2022-07-29T01:00:13;3.00;;;2.70;;
61702;SDS011;47622;47.726;3.298;2022-07-29T01:02:42;2.90;;;2.60;;
61702;SDS011;47622;47.726;3.298;2022-07-29T01:05:11;3.42;;;2.80;;
61702;SDS011;47622;47.726;3.298;2022-07-29T01:07:40;3.85;;;2.65;;
61702;SDS011;47622;47.726;3.298;2022-07-29T01:10:10;2.70;;;2.50;;
61702;SDS011;47622;47.726;3.298;2022-07-29T01:12:41;5.40;;;2.60;;
61702;SDS011;47622;47.726;3.298;2022-07-29T01:31:00;5.18;;;3.22;;
61702;SDS011;47622;47.726;3.298;2022-07-29T01:33:37;4.63;;;2.72;;
61702;SDS011;47622;47.726;3.298;2022-07-29T01:38:45;5.18;;;2.78;;
61702;SDS011;47622;47.726;3.298;2022-07-29T01:41:56;3.40;;;2.45;;
61702;SDS011;47622;47.726;3.298;2022-07-29T01:44:30;5.03;;;2.70;;
61702;SDS011;47622;47.726;3.298;2022-07-29T01:54:58;4.85;;;2.65;;
61702;SDS011;47622;47.726;3.298;2022-07-29T01:57:31;3.60;;;3.00;;
61702;SDS011;47622;47.726;3.298;2022-07-29T02:00:01;3.08;;;2.38;;
61702;SDS011;47622;47.726;3.298;2022-07-29T02:07:30;5.63;;;2.70;;
61702;SDS011;47622;47.726;3.298;2022-07-29T02:10:06;3.60;;;2.70;;
61702;SDS011;47622;47.726;3.298;2022-07-29T02:17:51;5.38;;;2.83;;
61702;SDS011;47622;47.726;3.298;2022-07-29T02:20:40;3.00;;;2.70;;
61702;SDS011;47622;47.726;3.298;2022-07-29T02:23:22;5.15;;;2.72;;
61702;SDS011;47622;47.726;3.298;2022-07-29T02:25:53;2.83;;;2.35;;
61702;SDS011;47622;47.726;3.298;2022-07-29T02:28:21;4.47;;;2.83;;
61702;SDS011;47622;47.726;3.298;2022-07-29T02:30:52;3.85;;;2.85;;
61702;SDS011;47622;47.726;3.298;2022-07-29T02:33:29;3.55;;;2.80;;
61702;SDS011;47622;47.726;3.298;2022-07-29T02:36:02;3.38;;;2.53;;
61702;SDS011;47622;47.726;3.298;2022-07-29T02:38:34;3.33;;;2.63;;
61702;SDS011;47622;47.726;3.298;2022-07-29T02:57:55;4.97;;;2.95;;
61702;SDS011;47622;47.726;3.298;2022-07-29T03:00:32;4.38;;;2.92;;
61702;SDS011;47622;47.726;3.298;2022-07-29T03:03:15;3.45;;;3.00;;
61702;SDS011;47622;47.726;3.298;2022-07-29T03:05:48;4.22;;;2.88;;
61702;SDS011;47622;47.726;3.298;2022-07-29T03:08:19;4.22;;;2.88;;
61702;SDS011;47622;47.726;3.298;2022-07-29T03:10:52;2.83;;;2.42;;
61702;SDS011;47622;47.726;3.298;2022-07-29T03:13:21;5.40;;;2.90;;
61702;SDS011;47622;47.726;3.298;2022-07-29T03:15:50;3.10;;;2.80;;
61702;SDS011;47622;47.726;3.298;2022-07-29T03:18:17;3.63;;;2.90;;
61702;SDS011;47622;47.726;3.298;2022-07-29T03:20:46;4.50;;;3.00;;
61702;SDS011;47622;47.726;3.298;2022-07-29T03:23:22;4.80;;;3.43;;
61702;SDS011;47622;47.726;3.298;2022-07-29T03:25:52;4.18;;;2.95;;
61702;SDS011;47622;47.726;3.298;2022-07-29T03:28:18;5.38;;;3.00;;
61702;SDS011;47622;47.726;3.298;2022-07-29T03:30:45;4.72;;;3.17;;
61702;SDS011;47622;47.726;3.298;2022-07-29T03:33:17;4.22;;;2.95;;
61702;SDS011;47622;47.726;3.298;2022-07-29T03:35:46;6.43;;;2.88;;
61702;SDS011;47622;47.726;3.298;2022-07-29T03:40:48;4.43;;;2.80;;
61702;SDS011;47622;47.726;3.298;2022-07-29T03:43:21;4.47;;;2.92;;
61702;SDS011;47622;47.726;3.298;2022-07-29T03:45:52;3.92;;;3.22;;
61702;SDS011;47622;47.726;3.298;2022-07-29T03:48:23;4.45;;;3.08;;
61702;SDS011;47622;47.726;3.298;2022-07-29T03:50:54;5.53;;;2.90;;
61702;SDS011;47622;47.726;3.298;2022-07-29T03:53:26;6.18;;;3.10;;
61702;SDS011;47622;47.726;3.298;2022-07-29T03:56:02;3.40;;;2.67;;
61702;SDS011;47622;47.726;3.298;2022-07-29T03:58:31;5.13;;;2.90;;
61702;SDS011;47622;47.726;3.298;2022-07-29T04:01:04;3.50;;;2.97;;
61702;SDS011;47622;47.726;3.298;2022-07-29T04:03:31;5.10;;;2.78;;
61702;SDS011;47622;47.726;3.298;2022-07-29T04:06:03;6.25;;;2.78;;
61702;SDS011;47622;47.726;3.298;2022-07-29T04:08:32;3.92;;;2.88;;
61702;SDS011;47622;47.726;3.298;2022-07-29T04:11:07;9.27;;;3.30;;
61702;SDS011;47622;47.726;3.298;2022-07-29T04:13:35;3.10;;;2.80;;
61702;SDS011;47622;47.726;3.298;2022-07-29T04:16:13;6.05;;;3.58;;
61702;SDS011;47622;47.726;3.298;2022-07-29T04:18:38;4.30;;;2.55;;
61702;SDS011;47622;47.726;3.298;2022-07-29T04:21:10;4.22;;;2.80;;
61702;SDS011;47622;47.726;3.298;2022-07-29T04:23:38;5.40;;;2.80;;
61702;SDS011;47622;47.726;3.298;2022-07-29T04:26:07;4.25;;;2.97;;
61702;SDS011;47622;47.726;3.298;2022-07-29T04:28:35;3.15;;;2.50;;
61702;SDS011;47622;47.726;3.298;2022-07-29T04:31:11;3.75;;;3.00;;
61702;SDS011;47622;47.726;3.298;2022-07-29T04:33:39;4.75;;;2.90;;
61702;SDS011;47622;47.726;3.298;2022-07-29T04:36:05;5.32;;;3.20;;
61702;SDS011;47622;47.726;3.298;2022-07-29T04:38:33;5.38;;;2.90;;
61702;SDS011;47622;47.726;3.298;2022-07-29T04:41:02;4.32;;;3.00;;
61702;SDS011;47622;47.726;3.298;2022-07-29T04:43:48;5.57;;;3.00;;
61702;SDS011;47622;47.726;3.298;2022-07-29T04:48:42;4.78;;;3.03;;
61702;SDS011;47622;47.726;3.298;2022-07-29T04:51:14;4.32;;;3.10;;
61702;SDS011;47622;47.726;3.298;2022-07-29T04:53:49;4.35;;;3.00;;
61702;SDS011;47622;47.726;3.298;2022-07-29T04:58:40;10.02;;;3.30;;
61702;SDS011;47622;47.726;3.298;2022-07-29T05:01:09;9.57;;;3.20;;
61702;SDS011;47622;47.726;3.298;2022-07-29T05:03:36;3.83;;;3.42;;
61702;SDS011;47622;47.726;3.298;2022-07-29T05:06:05;5.28;;;3.33;;
61702;SDS011;47622;47.726;3.298;2022-07-29T05:08:47;6.25;;;3.13;;
61702;SDS011;47622;47.726;3.298;2022-07-29T05:13:45;3.22;;;2.90;;
61702;SDS011;47622;47.726;3.298;2022-07-29T05:16:19;8.37;;;3.03;;
61702;SDS011;47622;47.726;3.298;2022-07-29T05:18:46;3.47;;;2.70;;
61702;SDS011;47622;47.726;3.298;2022-07-29T05:21:14;4.32;;;2.92;;
61702;SDS011;47622;47.726;3.298;2022-07-29T05:26:05;4.55;;;3.03;;
61702;SDS011;47622;47.726;3.298;2022-07-29T05:28:34;3.85;;;2.63;;
61702;SDS011;47622;47.726;3.298;2022-07-29T05:31:00;5.72;;;2.88;;
61702;SDS011;47622;47.726;3.298;2022-07-29T05:33:26;6.10;;;2.90;;
61702;SDS011;47622;47.726;3.298;2022-07-29T05:35:56;5.05;;;3.10;;
61702;SDS011;47622;47.726;3.298;2022-07-29T05:41:09;6.57;;;3.25;;
61702;SDS011;47622;47.726;3.298;2022-07-29T05:43:41;4.10;;;3.23;;
61702;SDS011;47622;47.726;3.298;2022-07-29T05:46:13;3.97;;;2.80;;
61702;SDS011;47622;47.726;3.298;2022-07-29T05:48:49;6.28;;;3.03;;
61702;SDS011;47622;47.726;3.298;2022-07-29T05:51:14;6.80;;;2.80;;
61702;SDS011;47622;47.726;3.298;2022-07-29T05:53:40;5.93;;;3.20;;
61702;SDS011;47622;47.726;3.298;2022-07-29T05:56:06;3.33;;;3.00;;
61702;SDS011;47622;47.726;3.298;2022-07-29T05:58:36;5.65;;;3.17;;
61702;SDS011;47622;47.726;3.298;2022-07-29T06:01:04;4.07;;;2.85;;
61702;SDS011;47622;47.726;3.298;2022-07-29T06:03:42;5.78;;;3.08;;
61702;SDS011;47622;47.726;3.298;2022-07-29T06:06:11;5.13;;;3.00;;
61702;SDS011;47622;47.726;3.298;2022-07-29T06:08:45;4.10;;;3.08;;
61702;SDS011;47622;47.726;3.298;2022-07-29T06:11:20;5.32;;;3.10;;
61702;SDS011;47622;47.726;3.298;2022-07-29T06:13:46;4.13;;;3.20;;
61702;SDS011;47622;47.726;3.298;2022-07-29T06:16:14;7.45;;;3.00;;
61702;SDS011;47622;47.726;3.298;2022-07-29T06:18:40;3.65;;;2.97;;
61702;SDS011;47622;47.726;3.298;2022-07-29T06:21:10;4.80;;;3.00;;
61702;SDS011;47622;47.726;3.298;2022-07-29T06:23:59;4.05;;;2.70;;
61702;SDS011;47622;47.726;3.298;2022-07-29T06:26:24;6.78;;;3.20;;
61702;SDS011;47622;47.726;3.298;2022-07-29T06:28:53;2.95;;;2.75;;
61702;SDS011;47622;47.726;3.298;2022-07-29T06:31:24;6.63;;;3.00;;
61702;SDS011;47622;47.726;3.298;2022-07-29T06:33:50;5.97;;;3.53;;
61702;SDS011;47622;47.726;3.298;2022-07-29T06:41:13;4.10;;;3.05;;
61702;SDS011;47622;47.726;3.298;2022-07-29T06:43:42;3.15;;;2.80;;
61702;SDS011;47622;47.726;3.298;2022-07-29T06:46:13;3.95;;;2.65;;
61702;SDS011;47622;47.726;3.298;2022-07-29T06:48:46;3.13;;;2.83;;
61702;SDS011;47622;47.726;3.298;2022-07-29T06:51:13;8.73;;;2.80;;
61702;SDS011;47622;47.726;3.298;2022-07-29T06:53:41;6.88;;;3.00;;
61702;SDS011;47622;47.726;3.298;2022-07-29T06:56:10;2.92;;;2.50;;
61702;SDS011;47622;47.726;3.298;2022-07-29T06:58:41;6.15;;;3.08;;
61702;SDS011;47622;47.726;3.298;2022-07-29T07:01:07;4.30;;;2.70;;
61702;SDS011;47622;47.726;3.298;2022-07-29T07:03:33;4.43;;;2.63;;
61702;SDS011;47622;47.726;3.298;2022-07-29T07:06:02;4.15;;;2.50;;
61702;SDS011;47622;47.726;3.298;2022-07-29T07:08:28;5.22;;;2.65;;
61702;SDS011;47622;47.726;3.298;2022-07-29T07:13:20;4.07;;;2.88;;
61702;SDS011;47622;47.726;3.298;2022-07-29T07:15:45;6.63;;;2.40;;
61702;SDS011;47622;47.726;3.298;2022-07-29T07:20:43;5.93;;;2.50;;
61702;SDS011;47622;47.726;3.298;2022-07-29T07:23:09;2.50;;;2.00;;
61702;SDS011;47622;47.726;3.298;2022-07-29T07:25:35;4.93;;;1.75;;
61702;SDS011;47622;47.726;3.298;2022-07-29T07:28:02;3.92;;;2.00;;
61702;SDS011;47622;47.726;3.298;2022-07-29T07:30:28;3.70;;;1.70;;
61702;SDS011;47622;47.726;3.298;2022-07-29T07:32:54;1.92;;;1.63;;
61702;SDS011;47622;47.726;3.298;2022-07-29T07:35:20;3.10;;;1.80;;
61702;SDS011;47622;47.726;3.298;2022-07-29T07:40:12;2.78;;;1.73;;
61702;SDS011;47622;47.726;3.298;2022-07-29T07:42:38;2.78;;;1.50;;
61702;SDS011;47622;47.726;3.298;2022-07-29T07:45:07;2.25;;;1.48;;
61702;SDS011;47622;47.726;3.298;2022-07-29T07:57:22;4.20;;;1.92;;
61702;SDS011;47622;47.726;3.298;2022-07-29T07:59:48;2.60;;;1.70;;
61702;SDS011;47622;47.726;3.298;2022-07-29T08:02:17;5.88;;;1.42;;
61702;SDS011;47622;47.726;3.298;2022-07-29T08:21:47;1.13;;;0.90;;
61702;SDS011;47622;47.726;3.298;2022-07-29T08:26:56;4.32;;;1.25;;
61702;SDS011;47622;47.726;3.298;2022-07-29T08:29:23;3.28;;;1.10;;
61702;SDS011;47622;47.726;3.298;2022-07-29T08:31:49;2.40;;;1.15;;
61702;SDS011;47622;47.726;3.298;2022-07-29T08:34:15;2.85;;;1.10;;
61702;SDS011;47622;47.726;3.298;2022-07-29T08:36:40;3.35;;;1.10;;
61702;SDS011;47622;47.726;3.298;2022-07-29T08:39:06;1.77;;;1.08;;
61702;SDS011;47622;47.726;3.298;2022-07-29T08:41:32;2.40;;;1.20;;
61702;SDS011;47622;47.726;3.298;2022-07-29T08:43:58;1.40;;;1.17;;
61702;SDS011;47622;47.726;3.298;2022-07-29T08:46:24;3.83;;;1.20;;
61702;SDS011;47622;47.726;3.298;2022-07-29T08:48:50;2.95;;;0.95;;
61702;SDS011;47622;47.726;3.298;2022-07-29T08:51:18;1.90;;;0.70;;
61702;SDS011;47622;47.726;3.298;2022-07-29T08:53:46;2.03;;;0.98;;
61702;SDS011;47622;47.726;3.298;2022-07-29T08:56:16;3.15;;;1.02;;
61702;SDS011;47622;47.726;3.298;2022-07-29T08:58:44;1.67;;;0.98;;
61702;SDS011;47622;47.726;3.298;2022-07-29T09:01:11;1.98;;;1.00;;
61702;SDS011;47622;47.726;3.298;2022-07-29T09:03:41;1.38;;;0.90;;
61702;SDS011;47622;47.726;3.298;2022-07-29T09:06:12;3.20;;;1.10;;
61702;SDS011;47622;47.726;3.298;2022-07-29T09:08:44;2.55;;;0.85;;
61702;SDS011;47622;47.726;3.298;2022-07-29T09:11:11;3.42;;;1.02;;
61702;SDS011;47622;47.726;3.298;2022-07-29T09:13:38;2.33;;;1.23;;
61702;SDS011;47622;47.726;3.298;2022-07-29T09:16:05;1.92;;;1.00;;
61702;SDS011;47622;47.726;3.298;2022-07-29T09:18:37;1.45;;;0.88;;
61702;SDS011;47622;47.726;3.298;2022-07-29T09:21:06;4.97;;;1.25;;
61702;SDS011;47622;47.726;3.298;2022-07-29T09:26:37;1.30;;;0.70;;
61702;SDS011;47622;47.726;3.298;2022-07-29T09:29:09;2.53;;;1.00;;
61702;SDS011;47622;47.726;3.298;2022-07-29T09:34:04;1.50;;;1.00;;
61702;SDS011;47622;47.726;3.298;2022-07-29T10:04:02;1.38;;;1.08;;
61702;SDS011;47622;47.726;3.298;2022-07-29T10:16:12;3.80;;;0.93;;
61702;SDS011;47622;47.726;3.298;2022-07-29T10:18:40;2.83;;;1.02;;
61702;SDS011;47622;47.726;3.298;2022-07-29T10:23:36;3.42;;;1.23;;
61702;SDS011;47622;47.726;3.298;2022-07-29T10:26:02;1.63;;;0.90;;
61702;SDS011;47622;47.726;3.298;2022-07-29T10:36:07;1.83;;;0.70;;
61702;SDS011;47622;47.726;3.298;2022-07-29T10:38:42;1.80;;;1.27;;
61702;SDS011;47622;47.726;3.298;2022-07-29T10:44:12;2.92;;;1.00;;
61702;SDS011;47622;47.726;3.298;2022-07-29T10:46:40;0.98;;;0.80;;
61702;SDS011;47622;47.726;3.298;2022-07-29T10:59:40;2.40;;;1.00;;
61702;SDS011;47622;47.726;3.298;2022-07-29T11:05:00;10.05;;;1.15;;
61702;SDS011;47622;47.726;3.298;2022-07-29T11:07:29;3.10;;;1.40;;
61702;SDS011;47622;47.726;3.298;2022-07-29T11:15:14;1.58;;;1.00;;
61702;SDS011;47622;47.726;3.298;2022-07-29T11:20:33;1.58;;;1.10;;
61702;SDS011;47622;47.726;3.298;2022-07-29T11:25:26;1.13;;;0.88;;
61702;SDS011;47622;47.726;3.298;2022-07-29T11:28:07;2.53;;;0.95;;
61702;SDS011;47622;47.726;3.298;2022-07-29T11:49:05;2.83;;;1.20;;
61702;SDS011;47622;47.726;3.298;2022-07-29T11:51:31;1.80;;;1.10;;
61702;SDS011;47622;47.726;3.298;2022-07-29T11:53:57;1.10;;;0.90;;
61702;SDS011;47622;47.726;3.298;2022-07-29T11:56:25;2.17;;;1.10;;
61702;SDS011;47622;47.726;3.298;2022-07-29T11:59:04;2.38;;;1.25;;
61702;SDS011;47622;47.726;3.298;2022-07-29T12:01:31;2.35;;;0.88;;
61702;SDS011;47622;47.726;3.298;2022-07-29T12:04:10;1.52;;;0.95;;
61702;SDS011;47622;47.726;3.298;2022-07-29T12:06:38;3.28;;;1.10;;
61702;SDS011;47622;47.726;3.298;2022-07-29T12:09:10;2.08;;;1.10;;
61702;SDS011;47622;47.726;3.298;2022-07-29T12:11:36;1.40;;;0.93;;
61702;SDS011;47622;47.726;3.298;2022-07-29T12:14:02;2.85;;;1.17;;
61702;SDS011;47622;47.726;3.298;2022-07-29T12:16:35;3.25;;;1.13;;
61702;SDS011;47622;47.726;3.298;2022-07-29T12:19:04;2.28;;;1.00;;
61702;SDS011;47622;47.726;3.298;2022-07-29T12:21:48;3.03;;;1.15;;
61702;SDS011;47622;47.726;3.298;2022-07-29T12:24:16;2.13;;;0.80;;
61702;SDS011;47622;47.726;3.298;2022-07-29T12:29:16;2.15;;;1.10;;
61702;SDS011;47622;47.726;3.298;2022-07-29T12:31:44;2.20;;;1.25;;
61702;SDS011;47622;47.726;3.298;2022-07-29T12:34:34;2.40;;;1.00;;
61702;SDS011;47622;47.726;3.298;2022-07-29T12:37:00;2.30;;;1.00;;
61702;SDS011;47622;47.726;3.298;2022-07-29T12:39:29;3.78;;;1.00;;
61702;SDS011;47622;47.726;3.298;2022-07-29T12:41:55;2.58;;;0.90;;
61702;SDS011;47622;47.726;3.298;2022-07-29T12:44:20;2.55;;;1.20;;
61702;SDS011;47622;47.726;3.298;2022-07-29T12:49:29;1.65;;;0.93;;
61702;SDS011;47622;47.726;3.298;2022-07-29T12:51:54;1.88;;;0.98;;
61702;SDS011;47622;47.726;3.298;2022-07-29T12:54:25;10.18;;;1.33;;
61702;SDS011;47622;47.726;3.298;2022-07-29T12:56:57;2.58;;;0.95;;
61702;SDS011;47622;47.726;3.298;2022-07-29T12:59:32;2.90;;;1.38;;
61702;SDS011;47622;47.726;3.298;2022-07-29T13:01:58;3.05;;;1.10;;
61702;SDS011;47622;47.726;3.298;2022-07-29T13:04:32;2.05;;;1.10;;
61702;SDS011;47622;47.726;3.298;2022-07-29T13:07:03;1.73;;;1.20;;
61702;SDS011;47622;47.726;3.298;2022-07-29T13:09:40;1.50;;;0.90;;
61702;SDS011;47622;47.726;3.298;2022-07-29T13:12:16;2.78;;;0.90;;
61702;SDS011;47622;47.726;3.298;2022-07-29T13:14:45;1.23;;;1.10;;
61702;SDS011;47622;47.726;3.298;2022-07-29T13:22:13;3.30;;;1.30;;
61702;SDS011;47622;47.726;3.298;2022-07-29T13:27:13;5.18;;;1.10;;
61702;SDS011;47622;47.726;3.298;2022-07-29T13:29:39;2.22;;;1.00;;
61702;SDS011;47622;47.726;3.298;2022-07-29T13:32:08;2.00;;;1.15;;
61702;SDS011;47622;47.726;3.298;2022-07-29T13:34:34;2.50;;;1.33;;
61702;SDS011;47622;47.726;3.298;2022-07-29T13:37:01;3.20;;;1.10;;
61702;SDS011;47622;47.726;3.298;2022-07-29T13:39:30;2.45;;;1.00;;
61702;SDS011;47622;47.726;3.298;2022-07-29T13:41:56;4.22;;;1.20;;
61702;SDS011;47622;47.726;3.298;2022-07-29T13:44:22;1.75;;;1.10;;
61702;SDS011;47622;47.726;3.298;2022-07-29T13:46:50;4.38;;;1.08;;
61702;SDS011;47622;47.726;3.298;2022-07-29T13:49:16;4.20;;;1.10;;
61702;SDS011;47622;47.726;3.298;2022-07-29T13:51:42;2.50;;;1.15;;
61702;SDS011;47622;47.726;3.298;2022-07-29T13:54:08;7.93;;;1.55;;
61702;SDS011;47622;47.726;3.298;2022-07-29T13:56:41;2.65;;;1.10;;
61702;SDS011;47622;47.726;3.298;2022-07-29T14:01:42;3.60;;;1.15;;
61702;SDS011;47622;47.726;3.298;2022-07-29T14:04:09;3.13;;;1.20;;
61702;SDS011;47622;47.726;3.298;2022-07-29T14:06:35;4.53;;;1.30;;
61702;SDS011;47622;47.726;3.298;2022-07-29T14:11:28;3.92;;;1.02;;
61702;SDS011;47622;47.726;3.298;2022-07-29T14:13:54;2.38;;;1.20;;
61702;SDS011;47622;47.726;3.298;2022-07-29T14:16:20;3.22;;;1.23;;
61702;SDS011;47622;47.726;3.298;2022-07-29T14:18:46;4.10;;;1.15;;
61702;SDS011;47622;47.726;3.298;2022-07-29T14:21:11;3.33;;;1.10;;
61702;SDS011;47622;47.726;3.298;2022-07-29T14:23:39;2.42;;;1.00;;
61702;SDS011;47622;47.726;3.298;2022-07-29T14:26:05;3.03;;;1.30;;
61702;SDS011;47622;47.726;3.298;2022-07-29T14:28:32;2.60;;;1.10;;
61702;SDS011;47622;47.726;3.298;2022-07-29T14:30:58;2.08;;;1.00;;
61702;SDS011;47622;47.726;3.298;2022-07-29T14:33:24;2.45;;;1.00;;
61702;SDS011;47622;47.726;3.298;2022-07-29T14:38:24;5.25;;;1.10;;
61702;SDS011;47622;47.726;3.298;2022-07-29T14:43:15;1.80;;;1.13;;
61702;SDS011;47622;47.726;3.298;2022-07-29T14:45:41;1.92;;;1.20;;
61702;SDS011;47622;47.726;3.298;2022-07-29T14:48:10;4.25;;;1.20;;
61702;SDS011;47622;47.726;3.298;2022-07-29T14:50:36;3.88;;;1.10;;
61702;SDS011;47622;47.726;3.298;2022-07-29T14:53:02;2.60;;;1.23;;
61702;SDS011;47622;47.726;3.298;2022-07-29T15:02:46;3.13;;;1.15;;
61702;SDS011;47622;47.726;3.298;2022-07-29T15:05:17;7.53;;;1.95;;
61702;SDS011;47622;47.726;3.298;2022-07-29T15:07:43;3.53;;;1.20;;
61702;SDS011;47622;47.726;3.298;2022-07-29T15:10:12;1.50;;;1.10;;
61702;SDS011;47622;47.726;3.298;2022-07-29T15:12:38;1.30;;;1.05;;
61702;SDS011;47622;47.726;3.298;2022-07-29T15:15:03;2.22;;;1.10;;
61702;SDS011;47622;47.726;3.298;2022-07-29T15:17:30;2.17;;;1.25;;
61702;SDS011;47622;47.726;3.298;2022-07-29T15:20:00;2.45;;;1.17;;
61702;SDS011;47622;47.726;3.298;2022-07-29T15:22:32;2.45;;;1.23;;
61702;SDS011;47622;47.726;3.298;2022-07-29T15:27:27;1.92;;;1.23;;
61702;SDS011;47622;47.726;3.298;2022-07-29T15:29:57;3.10;;;1.35;;
61702;SDS011;47622;47.726;3.298;2022-07-29T15:32:25;1.60;;;1.10;;
61702;SDS011;47622;47.726;3.298;2022-07-29T15:39:43;4.40;;;1.00;;
61702;SDS011;47622;47.726;3.298;2022-07-29T15:42:11;3.72;;;1.20;;
61702;SDS011;47622;47.726;3.298;2022-07-29T15:44:37;3.58;;;1.10;;
61702;SDS011;47622;47.726;3.298;2022-07-29T15:47:03;2.72;;;1.02;;
61702;SDS011;47622;47.726;3.298;2022-07-29T15:49:37;2.67;;;1.05;;
61702;SDS011;47622;47.726;3.298;2022-07-29T15:52:10;1.85;;;1.15;;
61702;SDS011;47622;47.726;3.298;2022-07-29T15:54:37;5.25;;;1.40;;
61702;SDS011;47622;47.726;3.298;2022-07-29T15:57:05;1.65;;;1.20;;
61702;SDS011;47622;47.726;3.298;2022-07-29T15:59:31;2.85;;;1.08;;
61702;SDS011;47622;47.726;3.298;2022-07-29T16:02:00;2.38;;;1.13;;
61702;SDS011;47622;47.726;3.298;2022-07-29T16:04:26;6.10;;;1.20;;
61702;SDS011;47622;47.726;3.298;2022-07-29T16:06:56;3.33;;;1.38;;
61702;SDS011;47622;47.726;3.298;2022-07-29T16:09:25;2.13;;;1.20;;
61702;SDS011;47622;47.726;3.298;2022-07-29T16:11:51;2.42;;;1.20;;
61702;SDS011;47622;47.726;3.298;2022-07-29T16:14:18;2.65;;;1.17;;
61702;SDS011;47622;47.726;3.298;2022-07-29T16:16:47;2.40;;;1.10;;
61702;SDS011;47622;47.726;3.298;2022-07-29T16:19:27;2.60;;;1.30;;
61702;SDS011;47622;47.726;3.298;2022-07-29T16:21:54;2.17;;;1.10;;
61702;SDS011;47622;47.726;3.298;2022-07-29T16:24:21;1.50;;;1.00;;
61702;SDS011;47622;47.726;3.298;2022-07-29T16:26:53;2.13;;;1.20;;
61702;SDS011;47622;47.726;3.298;2022-07-29T16:29:20;1.47;;;1.27;;
61702;SDS011;47622;47.726;3.298;2022-07-29T16:31:45;2.88;;;1.00;;
61702;SDS011;47622;47.726;3.298;2022-07-29T16:34:11;2.07;;;1.03;;
61702;SDS011;47622;47.726;3.298;2022-07-29T16:36:37;3.92;;;1.10;;
61702;SDS011;47622;47.726;3.298;2022-07-29T16:39:02;2.05;;;1.10;;
61702;SDS011;47622;47.726;3.298;2022-07-29T16:41:32;3.60;;;1.05;;
61702;SDS011;47622;47.726;3.298;2022-07-29T16:43:59;2.55;;;1.30;;
61702;SDS011;47622;47.726;3.298;2022-07-29T16:46:25;1.42;;;1.10;;
61702;SDS011;47622;47.726;3.298;2022-07-29T16:48:54;2.58;;;1.45;;
61702;SDS011;47622;47.726;3.298;2022-07-29T16:51:22;3.80;;;1.20;;
61702;SDS011;47622;47.726;3.298;2022-07-29T16:53:48;3.83;;;1.30;;
61702;SDS011;47622;47.726;3.298;2022-07-29T16:56:16;3.35;;;1.42;;
61702;SDS011;47622;47.726;3.298;2022-07-29T17:01:07;1.63;;;1.30;;
61702;SDS011;47622;47.726;3.298;2022-07-29T17:03:33;2.70;;;1.30;;
61702;SDS011;47622;47.726;3.298;2022-07-29T17:06:02;1.45;;;1.17;;
61702;SDS011;47622;47.726;3.298;2022-07-29T17:08:28;2.35;;;1.40;;
61702;SDS011;47622;47.726;3.298;2022-07-29T17:10:57;5.47;;;1.40;;
61702;SDS011;47622;47.726;3.298;2022-07-29T17:13:28;3.42;;;1.50;;
61702;SDS011;47622;47.726;3.298;2022-07-29T17:15:54;2.80;;;1.02;;
61702;SDS011;47622;47.726;3.298;2022-07-29T17:18:20;1.98;;;1.30;;
61702;SDS011;47622;47.726;3.298;2022-07-29T17:20:46;1.30;;;1.20;;
61702;SDS011;47622;47.726;3.298;2022-07-29T17:23:12;1.92;;;1.08;;
61702;SDS011;47622;47.726;3.298;2022-07-29T17:25:38;3.63;;;1.30;;
61702;SDS011;47622;47.726;3.298;2022-07-29T17:28:03;3.20;;;1.23;;
61702;SDS011;47622;47.726;3.298;2022-07-29T17:30:29;2.05;;;0.90;;
61702;SDS011;47622;47.726;3.298;2022-07-29T17:32:55;1.73;;;1.13;;
61702;SDS011;47622;47.726;3.298;2022-07-29T17:35:24;1.65;;;1.30;;
61702;SDS011;47622;47.726;3.298;2022-07-29T17:38:08;5.78;;;1.30;;
61702;SDS011;47622;47.726;3.298;2022-07-29T17:40:40;2.10;;;1.33;;
61702;SDS011;47622;47.726;3.298;2022-07-29T17:45:36;3.42;;;1.20;;
61702;SDS011;47622;47.726;3.298;2022-07-29T17:48:02;2.00;;;1.30;;
61702;SDS011;47622;47.726;3.298;2022-07-29T17:50:27;1.95;;;1.17;;
61702;SDS011;47622;47.726;3.298;2022-07-29T17:52:53;3.40;;;1.23;;
61702;SDS011;47622;47.726;3.298;2022-07-29T17:55:22;2.40;;;1.52;;
61702;SDS011;47622;47.726;3.298;2022-07-29T17:57:53;2.88;;;1.40;;
61702;SDS011;47622;47.726;3.298;2022-07-29T18:00:18;4.13;;;1.40;;
61702;SDS011;47622;47.726;3.298;2022-07-29T18:02:45;2.45;;;1.20;;
61702;SDS011;47622;47.726;3.298;2022-07-29T18:05:11;2.35;;;1.55;;
61702;SDS011;47622;47.726;3.298;2022-07-29T18:07:39;1.55;;;1.17;;
61702;SDS011;47622;47.726;3.298;2022-07-29T18:10:05;2.08;;;1.25;;
61702;SDS011;47622;47.726;3.298;2022-07-29T18:12:34;3.00;;;1.30;;
61702;SDS011;47622;47.726;3.298;2022-07-29T18:15:00;2.92;;;1.30;;
61702;SDS011;47622;47.726;3.298;2022-07-29T18:17:26;2.95;;;1.20;;
61702;SDS011;47622;47.726;3.298;2022-07-29T18:19:55;5.82;;;2.28;;
61702;SDS011;47622;47.726;3.298;2022-07-29T18:22:20;1.95;;;1.15;;
61702;SDS011;47622;47.726;3.298;2022-07-29T18:24:49;2.90;;;1.30;;
61702;SDS011;47622;47.726;3.298;2022-07-29T18:27:19;4.32;;;1.83;;
61702;SDS011;47622;47.726;3.298;2022-07-29T18:29:51;1.67;;;1.10;;
61702;SDS011;47622;47.726;3.298;2022-07-29T18:32:18;10.02;;;1.55;;
61702;SDS011;47622;47.726;3.298;2022-07-29T18:34:49;5.28;;;1.40;;
61702;SDS011;47622;47.726;3.298;2022-07-29T18:37:15;2.63;;;1.30;;
61702;SDS011;47622;47.726;3.298;2022-07-29T18:39:41;1.48;;;1.10;;
61702;SDS011;47622;47.726;3.298;2022-07-29T18:42:07;3.63;;;1.35;;
61702;SDS011;47622;47.726;3.298;2022-07-29T18:44:36;3.80;;;1.30;;
61702;SDS011;47622;47.726;3.298;2022-07-29T18:47:01;2.88;;;1.40;;
61702;SDS011;47622;47.726;3.298;2022-07-29T18:49:27;3.03;;;1.60;;
61702;SDS011;47622;47.726;3.298;2022-07-29T18:51:53;4.03;;;1.42;;
61702;SDS011;47622;47.726;3.298;2022-07-29T18:54:21;3.65;;;1.17;;
61702;SDS011;47622;47.726;3.298;2022-07-29T18:56:50;1.92;;;1.40;;
61702;SDS011;47622;47.726;3.298;2022-07-29T18:59:17;2.30;;;1.30;;
61702;SDS011;47622;47.726;3.298;2022-07-29T19:01:52;4.40;;;1.45;;
61702;SDS011;47622;47.726;3.298;2022-07-29T19:04:18;2.38;;;1.40;;
61702;SDS011;47622;47.726;3.298;2022-07-29T19:06:43;2.47;;;1.27;;
61702;SDS011;47622;47.726;3.298;2022-07-29T19:09:09;2.30;;;1.38;;